createdAt,value
2023-05-17T00:01:44.886Z,95541.31
2023-05-17T00:04:11.296Z,95544.22
2023-05-17T00:06:38.425Z,95546.69
2023-05-17T00:09:04.859Z,95558.56
2023-05-17T00:11:31.261Z,95559.38
2023-05-17T00:13:57.631Z,95558.25
2023-05-17T00:16:23.977Z,95566.38
2023-05-17T00:18:50.702Z,95565.56
2023-05-17T00:21:17.181Z,95570.97
2023-05-17T00:23:44.240Z,95568.53
2023-05-17T00:26:10.648Z,95580.66
2023-05-17T00:28:36.961Z,95579.28
2023-05-17T00:31:03.513Z,95579.25
2023-05-17T00:33:29.882Z,95583.34
2023-05-17T00:35:56.336Z,95576.88
2023-05-17T00:38:22.700Z,95586.31
2023-05-17T00:40:50.066Z,95579.56
2023-05-17T00:43:16.420Z,95581.41
2023-05-17T00:45:42.876Z,95580.06
2023-05-17T00:48:09.423Z,95570.59
2023-05-17T00:50:36.026Z,95577.31
2023-05-17T00:53:02.710Z,95582.16
2023-05-17T00:55:30.197Z,95590.03
2023-05-17T00:57:57.546Z,95579.78
2023-05-17T01:00:24.129Z,95584.09
2023-05-17T01:02:50.629Z,95584.66
2023-05-17T01:05:17.147Z,95584.13
2023-05-17T01:07:43.557Z,95581.44
2023-05-17T01:10:10.446Z,95591.13
2023-05-17T01:12:46.150Z,95591.69
2023-05-17T01:15:15.448Z,95589.81
2023-05-17T01:17:51.137Z,95584.09
2023-05-17T01:20:22.840Z,95594.91
2023-05-17T01:22:56.798Z,95590.59
2023-05-17T01:25:40.809Z,95592.69
2023-05-17T01:28:10.259Z,95596.22
2023-05-17T01:30:38.038Z,95603.75
2023-05-17T01:33:05.706Z,95605.41
2023-05-17T01:35:32.086Z,95609.16
2023-05-17T01:37:58.435Z,95607.00
2023-05-17T01:40:25.167Z,95608.34
2023-05-17T01:42:57.394Z,95605.63
2023-05-17T01:45:30.316Z,95602.44
2023-05-17T01:48:09.459Z,95603.75
2023-05-17T01:50:38.011Z,95608.84
2023-05-17T01:53:10.190Z,95616.97
2023-05-17T01:55:42.879Z,95612.91
2023-05-17T01:58:12.015Z,95612.91
2023-05-17T02:00:41.080Z,95613.72
2023-05-17T02:03:11.795Z,95609.38
2023-05-17T02:05:38.136Z,95617.78
2023-05-17T02:08:05.279Z,95617.75
2023-05-17T02:10:31.642Z,95616.69
2023-05-17T02:12:57.934Z,95617.75
2023-05-17T02:15:24.344Z,95628.28
2023-05-17T02:17:51.412Z,95619.69
2023-05-17T02:20:17.846Z,95620.19
2023-05-17T02:22:44.183Z,95628.34
2023-05-17T02:25:10.536Z,95621.81
2023-05-17T02:27:36.939Z,95640.97
2023-05-17T02:30:04.112Z,95624.00
2023-05-17T02:32:30.641Z,95635.03
2023-05-17T02:34:57.707Z,95636.94
2023-05-17T02:37:24.168Z,95628.31
2023-05-17T02:39:50.573Z,95632.38
2023-05-17T02:42:17.074Z,95632.09
2023-05-17T02:44:43.452Z,95639.09
2023-05-17T02:47:11.783Z,95635.31
2023-05-17T02:49:38.238Z,95645.03
2023-05-17T02:52:05.799Z,95642.34
2023-05-17T02:54:32.158Z,95637.47
2023-05-17T02:56:58.501Z,95638.28
2023-05-17T02:59:24.896Z,95642.56
2023-05-17T03:01:51.264Z,95641.78
2023-05-17T03:04:19.450Z,95635.59
2023-05-17T03:06:45.896Z,95649.06
2023-05-17T03:09:12.977Z,95655.28
2023-05-17T03:11:39.321Z,95658.75
2023-05-17T03:14:05.620Z,95663.84
2023-05-17T03:16:31.979Z,95667.06
2023-05-17T03:18:58.364Z,95666.06
2023-05-17T03:21:24.889Z,95674.34
2023-05-17T03:23:51.259Z,95673.31
2023-05-17T03:26:19.028Z,95684.31
2023-05-17T03:28:47.780Z,95680.34
2023-05-17T03:31:14.145Z,95682.28
2023-05-17T03:33:40.681Z,95692.25
2023-05-17T03:36:07.427Z,95681.47
2023-05-17T03:38:34.875Z,95685.78
2023-05-17T03:41:01.465Z,95689.25
2023-05-17T03:43:28.541Z,95691.75
2023-05-17T03:45:54.972Z,95693.38
2023-05-17T03:48:21.342Z,95694.72
2023-05-17T03:50:47.831Z,95691.75
2023-05-17T03:53:14.166Z,95696.84
2023-05-17T03:55:40.485Z,95701.38
2023-05-17T03:58:07.202Z,95716.81
2023-05-17T04:00:34.206Z,95709.28
2023-05-17T04:03:00.634Z,95712.53
2023-05-17T04:05:27.397Z,95719.81
2023-05-17T04:07:54.166Z,95723.69
2023-05-17T04:10:20.619Z,95724.53
2023-05-17T04:12:46.953Z,95731.78
2023-05-17T04:15:13.330Z,95733.47
2023-05-17T04:17:40.353Z,95739.94
2023-05-17T04:20:07.438Z,95739.16
2023-05-17T04:22:33.833Z,95743.19
2023-05-17T04:25:00.651Z,95742.16
2023-05-17T04:27:27.065Z,95749.44
2023-05-17T04:29:53.449Z,95751.63
2023-05-17T04:32:21.412Z,95752.47
2023-05-17T04:34:49.568Z,95758.63
2023-05-17T04:37:16.242Z,95755.06
2023-05-17T04:39:42.674Z,95764.06
2023-05-17T04:42:09.379Z,95770.03
2023-05-17T04:44:35.756Z,95775.94
2023-05-17T04:47:03.166Z,95771.97
2023-05-17T04:49:29.498Z,95784.09
2023-05-17T04:51:56.574Z,95785.22
2023-05-17T04:54:22.928Z,95776.09
2023-05-17T04:56:49.236Z,95784.44
2023-05-17T04:59:15.664Z,95775.63
2023-05-17T05:01:42.094Z,95780.25
2023-05-17T05:04:10.067Z,95776.50
2023-05-17T05:06:36.464Z,95780.31
2023-05-17T05:09:05.218Z,95772.72
2023-05-17T05:11:31.574Z,95769.22
2023-05-17T05:13:58.129Z,95774.97
2023-05-17T05:16:24.821Z,95781.47
2023-05-17T05:18:51.296Z,95777.22
2023-05-17T05:21:17.895Z,95779.38
2023-05-17T05:23:44.230Z,95781.31
2023-05-17T05:26:11.223Z,95782.34
2023-05-17T05:28:37.575Z,95773.69
2023-05-17T05:31:04.067Z,95786.41
2023-05-17T05:33:31.281Z,95783.44
2023-05-17T05:35:57.697Z,95784.81
2023-05-17T05:38:24.022Z,95779.16
2023-05-17T05:40:50.399Z,95785.91
2023-05-17T05:43:17.433Z,95786.25
2023-05-17T05:45:46.533Z,95794.38
2023-05-17T05:48:13.042Z,95781.16
2023-05-17T05:50:42.228Z,95790.91
2023-05-17T05:53:18.286Z,95779.00
2023-05-17T05:55:46.168Z,95780.38
2023-05-17T05:58:12.490Z,95792.03
2023-05-17T06:00:39.570Z,95780.94
2023-05-17T06:03:06.721Z,95787.16
2023-05-17T06:05:33.284Z,95787.69
2023-05-17T06:08:02.011Z,95788.50
2023-05-17T06:10:28.499Z,95787.16
2023-05-17T06:12:55.101Z,95782.84
2023-05-17T06:15:21.461Z,95790.97
2023-05-17T06:17:51.705Z,95797.47
2023-05-17T06:20:18.218Z,95791.22
2023-05-17T06:22:44.678Z,95797.44
2023-05-17T06:25:11.188Z,95808.81
2023-05-17T06:27:37.569Z,95805.31
2023-05-17T06:30:07.179Z,95804.50
2023-05-17T06:32:34.972Z,95808.28
2023-05-17T06:35:02.555Z,95813.97
2023-05-17T06:37:28.934Z,95807.72
2023-05-17T06:40:10.169Z,95809.59
2023-05-17T06:42:41.650Z,95813.59
2023-05-17T06:45:09.058Z,95812.97
2023-05-17T06:47:35.471Z,95814.09
2023-05-17T06:50:02.710Z,95810.50
2023-05-17T06:52:29.082Z,95809.63
2023-05-17T06:54:55.605Z,95819.94
2023-05-17T06:57:25.634Z,95812.03
2023-05-17T06:59:52.395Z,95820.13
2023-05-17T07:02:18.930Z,95823.66
2023-05-17T07:04:45.516Z,95817.72
2023-05-17T07:07:12.867Z,95828.84
2023-05-17T07:09:39.400Z,95828.09
2023-05-17T07:12:06.618Z,95830.31
2023-05-17T07:14:33.051Z,95838.50
2023-05-17T07:16:59.607Z,95831.66
2023-05-17T07:19:26.090Z,95837.44
2023-05-17T07:21:52.482Z,95824.00
2023-05-17T07:24:19.582Z,95833.50
2023-05-17T07:26:45.993Z,95833.56
2023-05-17T07:29:12.699Z,95835.47
2023-05-17T07:31:39.063Z,95840.56
2023-05-17T07:34:05.437Z,95838.19
2023-05-17T07:36:31.815Z,95841.72
2023-05-17T07:38:58.360Z,95844.16
2023-05-17T07:41:26.423Z,95846.09
2023-05-17T07:43:52.841Z,95850.66
2023-05-17T07:46:19.212Z,95834.91
2023-05-17T07:48:45.668Z,95840.03
2023-05-17T07:51:12.219Z,95839.72
2023-05-17T07:53:38.703Z,95840.81
2023-05-17T07:56:05.454Z,95847.63
2023-05-17T07:58:32.402Z,95835.09
2023-05-17T08:00:59.396Z,95847.56
2023-05-17T08:03:27.675Z,95852.66
2023-05-17T08:05:54.174Z,95848.00
2023-05-17T08:08:20.967Z,95839.13
2023-05-17T08:10:47.565Z,95834.84
2023-05-17T08:13:13.897Z,95842.31
2023-05-17T08:15:40.948Z,95830.22
2023-05-17T08:18:07.353Z,95840.47
2023-05-17T08:20:33.772Z,95835.19
2023-05-17T08:23:00.140Z,95835.16
2023-05-17T08:25:26.843Z,95836.78
2023-05-17T08:27:53.444Z,95843.19
2023-05-17T08:30:28.848Z,95839.84
2023-05-17T08:32:56.588Z,95845.25
2023-05-17T08:35:24.026Z,95844.13
2023-05-17T08:37:52.101Z,95845.91
2023-05-17T08:40:21.347Z,95852.63
2023-05-17T08:42:48.387Z,95855.66
2023-05-17T08:45:15.232Z,95859.69
2023-05-17T08:47:43.226Z,95849.69
2023-05-17T08:50:12.077Z,95856.84
2023-05-17T08:52:39.898Z,95853.88
2023-05-17T08:55:08.249Z,95847.50
2023-05-17T08:57:36.972Z,95848.72
2023-05-17T09:00:06.454Z,95849.22
2023-05-17T09:02:33.492Z,95855.47
2023-05-17T09:05:00.035Z,95857.09
2023-05-17T09:07:27.161Z,95852.97
2023-05-17T09:09:53.872Z,95859.03
2023-05-17T09:12:25.648Z,95861.91
2023-05-17T09:14:52.270Z,95865.50
2023-05-17T09:17:19.903Z,95869.75
2023-05-17T09:19:48.382Z,95858.28
2023-05-17T09:22:17.515Z,95863.28
2023-05-17T09:24:45.135Z,95871.06
2023-05-17T09:27:15.041Z,95866.75
2023-05-17T09:29:41.554Z,95861.13
2023-05-17T09:32:15.246Z,95868.72
2023-05-17T09:34:42.385Z,95853.81
2023-05-17T09:37:16.861Z,95877.16
2023-05-17T09:39:45.300Z,95873.09
2023-05-17T09:42:12.097Z,95869.97
2023-05-17T09:44:50.273Z,95868.13
2023-05-17T09:47:30.353Z,95866.59
2023-05-17T09:49:59.803Z,95862.97
2023-05-17T09:52:30.912Z,95872.00
2023-05-17T09:54:59.217Z,95867.88
2023-05-17T09:57:30.260Z,95867.28
2023-05-17T09:59:57.831Z,95867.09
2023-05-17T10:02:28.281Z,95874.09
2023-05-17T10:04:56.970Z,95864.38
2023-05-17T10:07:27.680Z,95868.34
2023-05-17T10:09:55.314Z,95861.47
2023-05-17T10:12:25.629Z,95868.53
2023-05-17T10:14:55.372Z,95863.44
2023-05-17T10:17:22.998Z,95863.81
2023-05-17T10:19:49.989Z,95858.22
2023-05-17T10:22:23.080Z,95871.13
2023-05-17T10:24:51.022Z,95859.84
2023-05-17T10:27:17.583Z,95858.38
2023-05-17T10:29:47.031Z,95863.47
2023-05-17T10:32:16.273Z,95856.16
2023-05-17T10:34:42.892Z,95854.47
2023-05-17T10:37:11.554Z,95857.75
2023-05-17T10:39:38.276Z,95856.25
2023-05-17T10:42:14.667Z,95851.41
2023-05-17T10:44:42.286Z,95859.66
2023-05-17T10:47:10.902Z,95853.66
2023-05-17T10:49:38.728Z,95857.41
2023-05-17T10:52:12.085Z,95855.69
2023-05-17T10:54:41.017Z,95851.28
2023-05-17T10:57:09.033Z,95854.63
2023-05-17T10:59:35.625Z,95850.75
2023-05-17T11:02:04.089Z,95847.44
2023-05-17T11:04:36.006Z,95846.03
2023-05-17T11:07:26.225Z,95840.56
2023-05-17T11:09:55.103Z,95831.56
2023-05-17T11:12:31.439Z,95822.44
2023-05-17T11:15:00.168Z,95823.56
2023-05-17T11:17:27.999Z,95830.56
2023-05-17T11:20:11.629Z,95821.53
2023-05-17T11:22:41.676Z,95832.09
2023-05-17T11:25:14.004Z,95838.47
2023-05-17T11:27:45.200Z,95826.34
2023-05-17T11:30:19.114Z,95826.75
2023-05-17T11:32:52.923Z,95829.25
2023-05-17T11:35:26.280Z,95830.56
2023-05-17T11:38:11.379Z,95839.91
2023-05-17T11:40:38.440Z,95829.31
2023-05-17T11:43:13.128Z,95832.09
2023-05-17T11:45:42.808Z,95837.28
2023-05-17T11:48:10.344Z,95832.91
2023-05-17T11:50:37.863Z,95832.50
2023-05-17T11:53:06.106Z,95833.28
2023-05-17T11:55:33.133Z,95836.59
2023-05-17T11:58:01.254Z,95825.69
2023-05-17T12:00:27.871Z,95821.75
2023-05-17T12:02:54.585Z,95811.88
2023-05-17T12:05:21.495Z,95822.41
2023-05-17T12:07:49.477Z,95825.06
2023-05-17T12:10:16.151Z,95822.91
2023-05-17T12:12:42.507Z,95831.97
2023-05-17T12:15:17.238Z,95826.06
2023-05-17T12:17:45.085Z,95835.06
2023-05-17T12:20:12.533Z,95824.44
2023-05-17T12:22:52.967Z,95833.63
2023-05-17T12:25:19.745Z,95839.75
2023-05-17T12:27:46.126Z,95842.13
2023-05-17T12:30:16.450Z,95837.56
2023-05-17T12:32:43.600Z,95840.38
2023-05-17T12:35:12.001Z,95838.41
2023-05-17T12:37:38.779Z,95824.59
2023-05-17T12:40:07.984Z,95825.25
2023-05-17T12:42:34.519Z,95833.31
2023-05-17T12:45:01.142Z,95822.75
2023-05-17T12:47:30.933Z,95831.34
2023-05-17T12:49:59.984Z,95826.19
2023-05-17T12:52:32.673Z,95826.44
2023-05-17T12:54:59.079Z,95827.50
2023-05-17T12:57:26.059Z,95822.59
2023-05-17T12:59:52.936Z,95829.53
2023-05-17T13:02:19.490Z,95829.19
2023-05-17T13:04:46.715Z,95826.63
2023-05-17T13:07:24.069Z,95831.94
2023-05-17T13:09:50.947Z,95826.50
2023-05-17T13:12:22.601Z,95822.19
2023-05-17T13:14:51.335Z,95824.53
2023-05-17T13:17:20.183Z,95829.94
2023-05-17T13:19:46.786Z,95825.97
2023-05-17T13:22:14.648Z,95820.22
2023-05-17T13:24:42.389Z,95829.53
2023-05-17T13:27:09.498Z,95838.06
2023-05-17T13:29:40.526Z,95839.78
2023-05-17T13:32:09.821Z,95832.94
2023-05-17T13:34:36.567Z,95843.75
2023-05-17T13:37:03.095Z,95836.44
2023-05-17T13:39:29.455Z,95842.84
2023-05-17T13:41:55.837Z,95836.56
2023-05-17T13:44:22.265Z,95830.88
2023-05-17T13:46:48.674Z,95822.94
2023-05-17T13:49:16.558Z,95828.00
2023-05-17T13:51:43.065Z,95816.03
2023-05-17T13:54:10.824Z,95824.03
2023-05-17T13:56:37.239Z,95816.88
2023-05-17T13:59:03.694Z,95836.53
2023-05-17T14:01:30.284Z,95835.34
2023-05-17T14:03:57.347Z,95829.34
2023-05-17T14:06:24.662Z,95832.38
2023-05-17T14:08:53.147Z,95833.28
2023-05-17T14:11:20.416Z,95831.53
2023-05-17T14:13:46.798Z,95820.66
2023-05-17T14:16:13.879Z,95822.06
2023-05-17T14:18:40.387Z,95820.59
2023-05-17T14:21:07.481Z,95824.31
2023-05-17T14:23:34.640Z,95820.31
2023-05-17T14:26:02.467Z,95822.06
2023-05-17T14:28:28.810Z,95823.72
2023-05-17T14:30:55.458Z,95818.44
2023-05-17T14:33:21.963Z,95824.06
2023-05-17T14:35:48.466Z,95816.78
2023-05-17T14:38:14.968Z,95824.78
2023-05-17T14:40:41.959Z,95812.38
2023-05-17T14:43:08.313Z,95810.09
2023-05-17T14:45:34.744Z,95809.88
2023-05-17T14:48:01.109Z,95812.69
2023-05-17T14:50:27.675Z,95817.78
2023-05-17T14:52:54.170Z,95819.13
2023-05-17T14:55:20.550Z,95819.25
2023-05-17T14:57:47.569Z,95819.53
2023-05-17T15:00:14.410Z,95817.34
2023-05-17T15:02:40.774Z,95820.19
2023-05-17T15:05:07.895Z,95823.59
2023-05-17T15:07:34.302Z,95824.03
2023-05-17T15:10:00.971Z,95827.00
2023-05-17T15:12:27.402Z,95828.75
2023-05-17T15:14:54.515Z,95829.13
2023-05-17T15:17:21.425Z,95823.78
2023-05-17T15:19:50.650Z,95817.50
2023-05-17T15:22:17.372Z,95832.19
2023-05-17T15:24:44.512Z,95827.38
2023-05-17T15:27:14.644Z,95818.06
2023-05-17T15:29:41.613Z,95827.63
2023-05-17T15:32:08.966Z,95827.19
2023-05-17T15:34:35.896Z,95832.16
2023-05-17T15:37:02.298Z,95836.78
2023-05-17T15:39:28.621Z,95841.19
2023-05-17T15:41:55.019Z,95842.84
2023-05-17T15:44:23.111Z,95843.34
2023-05-17T15:46:49.501Z,95846.88
2023-05-17T15:49:16.557Z,95847.69
2023-05-17T15:51:42.948Z,95840.72
2023-05-17T15:54:09.352Z,95846.38
2023-05-17T15:56:37.509Z,95848.91
2023-05-17T15:59:03.961Z,95848.41
2023-05-17T16:01:30.351Z,95854.66
2023-05-17T16:03:56.834Z,95841.66
2023-05-17T16:06:23.917Z,95840.66
2023-05-17T16:08:50.255Z,95847.13
2023-05-17T16:11:16.612Z,95853.28
2023-05-17T16:13:43.004Z,95848.09
2023-05-17T16:16:09.908Z,95842.03
2023-05-17T16:18:36.334Z,95844.69
2023-05-17T16:21:04.160Z,95845.22
2023-05-17T16:23:31.847Z,95851.63
2023-05-17T16:25:58.413Z,95856.69
2023-05-17T16:28:24.877Z,95858.22
2023-05-17T16:30:51.949Z,95850.09
2023-05-17T16:33:19.658Z,95861.66
2023-05-17T16:35:47.420Z,95862.72
2023-05-17T16:38:13.834Z,95868.25
2023-05-17T16:40:40.874Z,95874.78
2023-05-17T16:43:07.236Z,95875.84
2023-05-17T16:45:33.811Z,95874.44
2023-05-17T16:48:01.598Z,95880.47
2023-05-17T16:50:28.253Z,95875.44
2023-05-17T16:52:54.860Z,95881.09
2023-05-17T16:55:21.418Z,95882.69
2023-05-17T16:57:48.446Z,95883.91
2023-05-17T17:00:16.105Z,95884.91
2023-05-17T17:02:42.751Z,95887.22
2023-05-17T17:05:09.975Z,95887.22
2023-05-17T17:07:36.319Z,95893.25
2023-05-17T17:10:02.833Z,95896.28
2023-05-17T17:12:29.170Z,95892.22
2023-05-17T17:14:56.499Z,95896.34
2023-05-17T17:17:22.842Z,95888.66
2023-05-17T17:19:49.201Z,95893.28
2023-05-17T17:22:15.971Z,95890.25
2023-05-17T17:24:43.088Z,95900.94
2023-05-17T17:27:09.466Z,95900.09
2023-05-17T17:29:38.559Z,95901.00
2023-05-17T17:32:07.156Z,95901.88
2023-05-17T17:34:33.597Z,95900.53
2023-05-17T17:37:00.053Z,95910.84
2023-05-17T17:39:26.387Z,95913.06
2023-05-17T17:41:52.758Z,95905.72
2023-05-17T17:44:19.364Z,95917.22
2023-05-17T17:46:45.782Z,95908.03
2023-05-17T17:49:12.820Z,95910.88
2023-05-17T17:51:39.135Z,95915.19
2023-05-17T17:54:06.660Z,95917.44
2023-05-17T17:56:33.209Z,95924.78
2023-05-17T17:58:59.631Z,95926.75
2023-05-17T18:01:26.209Z,95929.22
2023-05-17T18:03:52.674Z,95923.56
2023-05-17T18:06:19.689Z,95930.38
2023-05-17T18:08:46.049Z,95934.22
2023-05-17T18:11:12.626Z,95938.34
2023-05-17T18:13:39.077Z,95942.13
2023-05-17T18:16:05.980Z,95939.41
2023-05-17T18:18:32.374Z,95947.31
2023-05-17T18:20:58.735Z,95952.53
2023-05-17T18:23:25.777Z,95946.03
2023-05-17T18:25:52.129Z,95950.91
2023-05-17T18:28:26.908Z,95956.69
2023-05-17T18:31:04.571Z,95959.13
2023-05-17T18:33:33.200Z,95960.75
2023-05-17T18:35:59.555Z,95961.84
2023-05-17T18:38:26.612Z,95956.19
2023-05-17T18:40:52.979Z,95969.50
2023-05-17T18:43:19.389Z,95971.69
2023-05-17T18:45:45.820Z,95963.81
2023-05-17T18:48:12.261Z,95970.88
2023-05-17T18:50:38.976Z,95975.25
2023-05-17T18:53:05.603Z,95974.94
2023-05-17T18:55:32.653Z,95977.44
2023-05-17T18:57:59.014Z,95979.56
2023-05-17T19:00:25.718Z,95979.84
2023-05-17T19:02:53.928Z,95978.25
2023-05-17T19:05:20.629Z,95976.31
2023-05-17T19:07:47.012Z,95978.25
2023-05-17T19:10:13.343Z,95978.50
2023-05-17T19:12:40.640Z,95984.47
2023-05-17T19:15:08.954Z,95983.16
2023-05-17T19:17:35.718Z,95985.06
2023-05-17T19:20:02.898Z,95991.03
2023-05-17T19:22:32.143Z,95992.66
2023-05-17T19:24:59.295Z,95992.38
2023-05-17T19:27:26.745Z,95996.72
2023-05-17T19:29:53.773Z,96001.06
2023-05-17T19:32:22.549Z,96003.22
2023-05-17T19:34:48.978Z,96010.56
2023-05-17T19:37:15.435Z,96013.78
2023-05-17T19:39:41.815Z,96018.41
2023-05-17T19:42:08.200Z,96010.53
2023-05-17T19:44:34.579Z,96018.69
2023-05-17T19:47:01.568Z,96017.06
2023-05-17T19:49:27.946Z,96029.00
2023-05-17T19:51:54.337Z,96018.94
2023-05-17T19:54:20.834Z,96017.34
2023-05-17T19:56:47.206Z,96018.16
2023-05-17T19:59:13.740Z,96022.47
2023-05-17T20:01:40.156Z,96027.91
2023-05-17T20:04:07.393Z,96021.41
2023-05-17T20:06:33.920Z,96019.50
2023-05-17T20:09:00.324Z,96019.25
2023-05-17T20:11:26.803Z,96016.25
2023-05-17T20:13:53.131Z,96019.22
2023-05-17T20:16:19.667Z,96021.09
2023-05-17T20:18:46.191Z,96020.00
2023-05-17T20:21:17.467Z,96024.63
2023-05-17T20:23:43.888Z,96020.03
2023-05-17T20:26:15.342Z,96028.13
2023-05-17T20:28:41.677Z,96028.66
2023-05-17T20:31:08.660Z,96022.72
2023-05-17T20:33:35.048Z,96028.38
2023-05-17T20:36:01.440Z,96032.97
2023-05-17T20:38:28.501Z,96030.50
2023-05-17T20:40:55.090Z,96030.78
2023-05-17T20:43:27.890Z,96033.75
2023-05-17T20:45:54.381Z,96031.53
2023-05-17T20:48:20.847Z,96035.06
2023-05-17T20:50:48.305Z,96032.63
2023-05-17T20:53:14.725Z,96039.13
2023-05-17T20:55:43.662Z,96039.13
2023-05-17T20:58:10.082Z,96047.47
2023-05-17T21:00:37.295Z,96045.84
2023-05-17T21:03:03.988Z,96040.44
2023-05-17T21:05:35.193Z,96044.19
2023-05-17T21:08:01.705Z,96045.50
2023-05-17T21:10:28.790Z,96047.88
2023-05-17T21:12:55.891Z,96047.50
2023-05-17T21:15:22.312Z,96050.13
2023-05-17T21:17:48.728Z,96051.47
2023-05-17T21:20:15.186Z,96041.16
2023-05-17T21:22:54.074Z,96046.31
2023-05-17T21:25:20.556Z,96047.66
2023-05-17T21:27:47.003Z,96045.22
2023-05-17T21:30:14.112Z,96052.78
2023-05-17T21:32:41.061Z,96050.81
2023-05-17T21:35:07.870Z,96050.19
2023-05-17T21:37:36.387Z,96052.81
2023-05-17T21:40:02.867Z,96059.47
2023-05-17T21:42:30.550Z,96058.50
2023-05-17T21:44:56.952Z,96060.06
2023-05-17T21:47:23.927Z,96062.94
2023-05-17T21:49:50.653Z,96058.63
2023-05-17T21:52:16.995Z,96059.94
2023-05-17T21:54:43.360Z,96055.09
2023-05-17T21:57:09.885Z,96057.28
2023-05-17T21:59:36.230Z,96059.25
2023-05-17T22:02:02.712Z,96060.91
2023-05-17T22:04:29.830Z,96062.09
2023-05-17T22:06:56.268Z,96064.03
2023-05-17T22:09:22.786Z,96063.22
2023-05-17T22:11:49.426Z,96055.44
2023-05-17T22:14:15.944Z,96058.22
2023-05-17T22:16:42.374Z,96048.75
2023-05-17T22:19:08.763Z,96049.31
2023-05-17T22:21:35.902Z,96047.63
2023-05-17T22:24:02.331Z,96049.75
2023-05-17T22:26:28.792Z,96044.34
2023-05-17T22:28:55.900Z,96048.22
2023-05-17T22:31:22.358Z,96054.44
2023-05-17T22:33:48.788Z,96043.91
2023-05-17T22:36:16.594Z,96047.09
2023-05-17T22:38:43.621Z,96043.34
2023-05-17T22:41:10.895Z,96041.22
2023-05-17T22:43:37.823Z,96041.69
2023-05-17T22:46:04.660Z,96043.06
2023-05-17T22:48:31.382Z,96034.88
2023-05-17T22:51:00.140Z,96032.41
2023-05-17T22:57:59.366Z,96044.28
2023-05-17T23:00:25.844Z,96027.16
2023-05-17T23:02:53.381Z,96028.44
2023-05-17T23:05:21.474Z,96029.47
2023-05-17T23:07:47.827Z,96021.50
2023-05-17T23:10:14.767Z,96025.72
2023-05-17T23:12:41.423Z,96025.03
2023-05-17T23:15:10.076Z,96021.84
2023-05-17T23:17:38.241Z,96025.97
2023-05-17T23:20:09.144Z,96013.84
2023-05-17T23:22:35.836Z,96015.94
2023-05-17T23:25:02.995Z,96011.97
2023-05-17T23:27:32.904Z,96013.91
2023-05-17T23:30:00.294Z,96010.00
2023-05-17T23:32:27.769Z,96012.22
2023-05-17T23:34:57.575Z,96012.47
2023-05-17T23:37:24.105Z,96012.03
2023-05-17T23:39:50.529Z,96015.63
2023-05-17T23:42:17.997Z,96013.09
2023-05-17T23:44:45.772Z,96005.91
2023-05-17T23:47:12.104Z,96011.13
2023-05-17T23:49:39.121Z,96003.69
2023-05-17T23:52:10.322Z,96008.31
2023-05-17T23:54:37.418Z,95993.13
2023-05-17T23:57:03.956Z,95992.25
2023-05-17T23:59:31.845Z,95994.00
